In Rescue
 
Open Full Screen Window  High Contrast Mode
Wind Gusting 14 knots
11
January 20, 2021 1:52 PM PST
Weather Information
Wind Direction
  290 °
Wind Speed
  11 kt (13 mph)
Wind Gust
  14 kt (16 mph)
Altimeter
29.93 in
Visibility
10 SM
Temperature
23° C
73° F
Dewpoint
01° C
34° F
Humidity
23%
1hr Rain Fall
00.00 in.
24hr Rain Fall
00.00 in.
Sky Condition
Clear
VFR

METAR KSBD 202152Z AUTO 29011G14KT 10SM CLR 23/01 A2993 RMK AO2 T02310009

FAA Disclaimer: The data displayed is for advisory purposes only and is not to be used for flight planning or operations.